Terminal Aerodrome Forecast
Issued by NWS Cleveland, OH

Home | Current Version | Previous Version | Text Only | Print | Product List | Glossary Off
Versions: 1 2 3 4 5 6 7 8 9 10 11 12 13 14 15 16 17 18

000
FTUS41 KCLE 151137
TAFTOL
TAF
KTOL 151137Z 1512/1612 VRB03KT P6SM SCT200
      TEMPO 1512/1513 5SM BR
     FM151800 26006KT P6SM BKN045
     FM152200 30005KT P6SM SCT045
     FM160300 05004KT P6SM SCT250=

USA.gov is the U.S. government's official web portal to all federal, state and local government web resources and services.